Terminal Aerodrome Forecast
Issued by NWS Sterling, VA

Home | Current Version | Previous Version | Text Only | Print | Product List | Glossary On
Versions: 1 2 3 4 5 6 7 8 9 10 11 12 13 14
000
FTUS41 KLWX 300500
TAFCHO
TAF
KCHO 300540Z 3006/3106 22007KT P6SM BKN050
     FM300900 28009KT P6SM SCT050
     FM301300 31012G21KT P6SM SCT050
     FM301700 32015G25KT P6SM SCT040
     FM310200 31012KT P6SM FEW250=

USA.gov is the U.S. government's official web portal to all federal, state and local government web resources and services.